sensor_id;sensor_type;location;lat;lon;timestamp;P1;durP1;ratioP1;P2;durP2;ratioP2
20095;SDS011;10207;50.942;6.900;2024-02-26T00:01:27;3.45;;;2.58;;
20095;SDS011;10207;50.942;6.900;2024-02-26T00:03:53;2.50;;;1.40;;
20095;SDS011;10207;50.942;6.900;2024-02-26T00:06:21;2.55;;;1.55;;
20095;SDS011;10207;50.942;6.900;2024-02-26T00:08:47;1.50;;;1.23;;
20095;SDS011;10207;50.942;6.900;2024-02-26T00:11:13;1.98;;;1.45;;
20095;SDS011;10207;50.942;6.900;2024-02-26T00:13:39;3.58;;;1.40;;
20095;SDS011;10207;50.942;6.900;2024-02-26T00:16:05;2.78;;;1.35;;
20095;SDS011;10207;50.942;6.900;2024-02-26T00:18:32;2.30;;;1.60;;
20095;SDS011;10207;50.942;6.900;2024-02-26T00:20:58;1.25;;;1.15;;
20095;SDS011;10207;50.942;6.900;2024-02-26T00:23:24;1.80;;;1.30;;
20095;SDS011;10207;50.942;6.900;2024-02-26T00:25:50;1.70;;;1.30;;
20095;SDS011;10207;50.942;6.900;2024-02-26T00:28:17;1.50;;;1.20;;
20095;SDS011;10207;50.942;6.900;2024-02-26T00:30:43;1.75;;;1.13;;
20095;SDS011;10207;50.942;6.900;2024-02-26T00:33:09;2.50;;;1.23;;
20095;SDS011;10207;50.942;6.900;2024-02-26T00:35:35;2.22;;;1.30;;
20095;SDS011;10207;50.942;6.900;2024-02-26T00:38:01;1.80;;;1.58;;
20095;SDS011;10207;50.942;6.900;2024-02-26T00:40:29;1.60;;;1.27;;
20095;SDS011;10207;50.942;6.900;2024-02-26T00:42:55;1.90;;;1.48;;
20095;SDS011;10207;50.942;6.900;2024-02-26T00:45:21;1.42;;;1.25;;
20095;SDS011;10207;50.942;6.900;2024-02-26T00:47:47;5.00;;;1.40;;
20095;SDS011;10207;50.942;6.900;2024-02-26T00:50:14;2.10;;;1.67;;
20095;SDS011;10207;50.942;6.900;2024-02-26T00:52:41;1.30;;;1.20;;
20095;SDS011;10207;50.942;6.900;2024-02-26T00:55:07;2.20;;;1.20;;
20095;SDS011;10207;50.942;6.900;2024-02-26T00:57:33;1.83;;;1.02;;
20095;SDS011;10207;50.942;6.900;2024-02-26T00:59:58;1.58;;;0.98;;
20095;SDS011;10207;50.942;6.900;2024-02-26T01:02:25;1.45;;;0.90;;
20095;SDS011;10207;50.942;6.900;2024-02-26T01:04:51;1.50;;;0.80;;
20095;SDS011;10207;50.942;6.900;2024-02-26T01:07:17;2.47;;;0.80;;
20095;SDS011;10207;50.942;6.900;2024-02-26T01:09:43;2.10;;;0.90;;
20095;SDS011;10207;50.942;6.900;2024-02-26T01:12:09;2.05;;;0.70;;
20095;SDS011;10207;50.942;6.900;2024-02-26T01:14:35;2.03;;;0.85;;
20095;SDS011;10207;50.942;6.900;2024-02-26T01:17:01;0.93;;;0.70;;
20095;SDS011;10207;50.942;6.900;2024-02-26T01:19:27;1.55;;;0.70;;
20095;SDS011;10207;50.942;6.900;2024-02-26T01:21:53;1.08;;;0.65;;
20095;SDS011;10207;50.942;6.900;2024-02-26T01:24:19;1.05;;;0.60;;
20095;SDS011;10207;50.942;6.900;2024-02-26T01:26:45;1.05;;;0.60;;
20095;SDS011;10207;50.942;6.900;2024-02-26T01:29:11;4.45;;;2.25;;
20095;SDS011;10207;50.942;6.900;2024-02-26T01:31:37;1.40;;;0.70;;
20095;SDS011;10207;50.942;6.900;2024-02-26T01:34:04;0.95;;;0.65;;
20095;SDS011;10207;50.942;6.900;2024-02-26T01:36:30;0.93;;;0.70;;
20095;SDS011;10207;50.942;6.900;2024-02-26T01:38:56;1.60;;;0.68;;
20095;SDS011;10207;50.942;6.900;2024-02-26T01:41:22;1.40;;;0.85;;
20095;SDS011;10207;50.942;6.900;2024-02-26T01:43:48;0.70;;;0.60;;
20095;SDS011;10207;50.942;6.900;2024-02-26T01:46:14;0.85;;;0.52;;
20095;SDS011;10207;50.942;6.900;2024-02-26T01:48:41;1.65;;;0.80;;
20095;SDS011;10207;50.942;6.900;2024-02-26T01:51:07;3.72;;;0.93;;
20095;SDS011;10207;50.942;6.900;2024-02-26T01:53:33;1.25;;;0.68;;
20095;SDS011;10207;50.942;6.900;2024-02-26T01:56:00;3.63;;;0.80;;
20095;SDS011;10207;50.942;6.900;2024-02-26T01:58:26;0.75;;;0.70;;
20095;SDS011;10207;50.942;6.900;2024-02-26T02:00:52;1.08;;;0.90;;
20095;SDS011;10207;50.942;6.900;2024-02-26T02:03:18;1.58;;;0.50;;
20095;SDS011;10207;50.942;6.900;2024-02-26T02:05:44;1.15;;;0.70;;
20095;SDS011;10207;50.942;6.900;2024-02-26T02:08:10;2.35;;;0.85;;
20095;SDS011;10207;50.942;6.900;2024-02-26T02:10:37;1.83;;;0.70;;
20095;SDS011;10207;50.942;6.900;2024-02-26T02:13:04;1.25;;;0.55;;
20095;SDS011;10207;50.942;6.900;2024-02-26T02:15:30;1.08;;;0.70;;
20095;SDS011;10207;50.942;6.900;2024-02-26T02:17:56;1.67;;;0.60;;
20095;SDS011;10207;50.942;6.900;2024-02-26T02:20:26;1.05;;;0.60;;
20095;SDS011;10207;50.942;6.900;2024-02-26T02:22:56;0.55;;;0.50;;
20095;SDS011;10207;50.942;6.900;2024-02-26T02:25:23;0.95;;;0.43;;
20095;SDS011;10207;50.942;6.900;2024-02-26T02:27:48;1.25;;;0.60;;
20095;SDS011;10207;50.942;6.900;2024-02-26T02:30:14;1.75;;;0.73;;
20095;SDS011;10207;50.942;6.900;2024-02-26T02:32:41;1.60;;;0.70;;
20095;SDS011;10207;50.942;6.900;2024-02-26T02:35:08;1.65;;;0.68;;
20095;SDS011;10207;50.942;6.900;2024-02-26T02:37:34;0.82;;;0.68;;
20095;SDS011;10207;50.942;6.900;2024-02-26T02:40:00;2.60;;;0.65;;
20095;SDS011;10207;50.942;6.900;2024-02-26T02:42:26;1.67;;;0.88;;
20095;SDS011;10207;50.942;6.900;2024-02-26T02:44:52;2.20;;;0.75;;
20095;SDS011;10207;50.942;6.900;2024-02-26T02:47:18;0.88;;;0.60;;
20095;SDS011;10207;50.942;6.900;2024-02-26T02:49:44;0.98;;;0.50;;
20095;SDS011;10207;50.942;6.900;2024-02-26T02:52:10;2.70;;;0.82;;
20095;SDS011;10207;50.942;6.900;2024-02-26T02:54:36;1.08;;;0.57;;
20095;SDS011;10207;50.942;6.900;2024-02-26T02:57:06;1.58;;;0.63;;
20095;SDS011;10207;50.942;6.900;2024-02-26T02:59:32;1.77;;;0.63;;
20095;SDS011;10207;50.942;6.900;2024-02-26T03:01:58;1.40;;;0.70;;
20095;SDS011;10207;50.942;6.900;2024-02-26T03:04:24;1.15;;;0.60;;
20095;SDS011;10207;50.942;6.900;2024-02-26T03:06:51;1.42;;;0.70;;
20095;SDS011;10207;50.942;6.900;2024-02-26T03:09:17;1.33;;;0.60;;
20095;SDS011;10207;50.942;6.900;2024-02-26T03:11:43;1.05;;;0.70;;
20095;SDS011;10207;50.942;6.900;2024-02-26T03:14:09;1.10;;;0.60;;
20095;SDS011;10207;50.942;6.900;2024-02-26T03:16:35;2.28;;;0.98;;
20095;SDS011;10207;50.942;6.900;2024-02-26T03:19:01;1.58;;;0.70;;
20095;SDS011;10207;50.942;6.900;2024-02-26T03:21:28;0.55;;;0.50;;
20095;SDS011;10207;50.942;6.900;2024-02-26T03:23:54;1.10;;;0.82;;
20095;SDS011;10207;50.942;6.900;2024-02-26T03:26:21;0.77;;;0.50;;
20095;SDS011;10207;50.942;6.900;2024-02-26T03:28:47;0.75;;;0.57;;
20095;SDS011;10207;50.942;6.900;2024-02-26T03:31:13;5.43;;;0.80;;
20095;SDS011;10207;50.942;6.900;2024-02-26T03:33:39;1.15;;;0.60;;
20095;SDS011;10207;50.942;6.900;2024-02-26T03:36:05;1.02;;;0.50;;
20095;SDS011;10207;50.942;6.900;2024-02-26T03:38:33;1.70;;;0.80;;
20095;SDS011;10207;50.942;6.900;2024-02-26T03:40:59;2.28;;;0.70;;
20095;SDS011;10207;50.942;6.900;2024-02-26T03:43:25;2.03;;;0.70;;
20095;SDS011;10207;50.942;6.900;2024-02-26T03:45:51;1.00;;;0.63;;
20095;SDS011;10207;50.942;6.900;2024-02-26T03:48:17;1.10;;;0.73;;
20095;SDS011;10207;50.942;6.900;2024-02-26T03:50:44;2.17;;;0.65;;
20095;SDS011;10207;50.942;6.900;2024-02-26T03:53:10;1.10;;;0.60;;
20095;SDS011;10207;50.942;6.900;2024-02-26T03:55:38;1.73;;;0.60;;
20095;SDS011;10207;50.942;6.900;2024-02-26T03:58:04;1.25;;;0.60;;
20095;SDS011;10207;50.942;6.900;2024-02-26T04:00:30;3.38;;;0.90;;
20095;SDS011;10207;50.942;6.900;2024-02-26T04:02:56;3.17;;;0.70;;
20095;SDS011;10207;50.942;6.900;2024-02-26T04:05:22;2.67;;;1.00;;
20095;SDS011;10207;50.942;6.900;2024-02-26T04:07:48;1.50;;;0.85;;
20095;SDS011;10207;50.942;6.900;2024-02-26T04:10:14;1.23;;;0.60;;
20095;SDS011;10207;50.942;6.900;2024-02-26T04:12:41;2.80;;;0.90;;
20095;SDS011;10207;50.942;6.900;2024-02-26T04:15:08;1.08;;;0.75;;
20095;SDS011;10207;50.942;6.900;2024-02-26T04:17:34;1.10;;;0.80;;
20095;SDS011;10207;50.942;6.900;2024-02-26T04:20:00;2.55;;;0.90;;
20095;SDS011;10207;50.942;6.900;2024-02-26T04:22:26;1.92;;;0.93;;
20095;SDS011;10207;50.942;6.900;2024-02-26T04:24:52;1.63;;;1.00;;
20095;SDS011;10207;50.942;6.900;2024-02-26T04:27:18;0.90;;;0.80;;
20095;SDS011;10207;50.942;6.900;2024-02-26T04:29:44;0.90;;;0.77;;
20095;SDS011;10207;50.942;6.900;2024-02-26T04:32:10;3.55;;;1.17;;
20095;SDS011;10207;50.942;6.900;2024-02-26T04:34:37;2.53;;;0.80;;
20095;SDS011;10207;50.942;6.900;2024-02-26T04:37:03;2.05;;;0.88;;
20095;SDS011;10207;50.942;6.900;2024-02-26T04:39:29;2.30;;;1.20;;
20095;SDS011;10207;50.942;6.900;2024-02-26T04:41:55;2.20;;;0.70;;
20095;SDS011;10207;50.942;6.900;2024-02-26T04:44:21;1.95;;;1.08;;
20095;SDS011;10207;50.942;6.900;2024-02-26T04:46:47;2.08;;;1.30;;
20095;SDS011;10207;50.942;6.900;2024-02-26T04:49:13;2.13;;;1.02;;
20095;SDS011;10207;50.942;6.900;2024-02-26T04:51:40;1.83;;;0.82;;
20095;SDS011;10207;50.942;6.900;2024-02-26T04:54:06;1.85;;;1.00;;
20095;SDS011;10207;50.942;6.900;2024-02-26T04:56:32;1.95;;;1.00;;
20095;SDS011;10207;50.942;6.900;2024-02-26T04:58:58;2.00;;;1.23;;
20095;SDS011;10207;50.942;6.900;2024-02-26T05:01:24;2.40;;;0.93;;
20095;SDS011;10207;50.942;6.900;2024-02-26T05:03:49;2.00;;;1.20;;
20095;SDS011;10207;50.942;6.900;2024-02-26T05:06:16;4.03;;;1.00;;
20095;SDS011;10207;50.942;6.900;2024-02-26T05:08:42;2.35;;;1.23;;
20095;SDS011;10207;50.942;6.900;2024-02-26T05:11:09;1.25;;;1.00;;
20095;SDS011;10207;50.942;6.900;2024-02-26T05:13:36;1.65;;;1.10;;
20095;SDS011;10207;50.942;6.900;2024-02-26T05:16:02;7.00;;;1.40;;
20095;SDS011;10207;50.942;6.900;2024-02-26T05:18:28;1.58;;;1.10;;
20095;SDS011;10207;50.942;6.900;2024-02-26T05:20:54;4.25;;;1.38;;
20095;SDS011;10207;50.942;6.900;2024-02-26T05:23:21;2.13;;;1.08;;
20095;SDS011;10207;50.942;6.900;2024-02-26T05:25:48;1.75;;;1.20;;
20095;SDS011;10207;50.942;6.900;2024-02-26T05:28:14;2.10;;;1.17;;
20095;SDS011;10207;50.942;6.900;2024-02-26T05:30:42;1.88;;;1.10;;
20095;SDS011;10207;50.942;6.900;2024-02-26T05:33:08;2.63;;;1.13;;
20095;SDS011;10207;50.942;6.900;2024-02-26T05:35:34;1.38;;;1.00;;
20095;SDS011;10207;50.942;6.900;2024-02-26T05:38:00;2.15;;;1.10;;
20095;SDS011;10207;50.942;6.900;2024-02-26T05:40:26;3.00;;;1.17;;
20095;SDS011;10207;50.942;6.900;2024-02-26T05:42:52;1.23;;;0.85;;
20095;SDS011;10207;50.942;6.900;2024-02-26T05:45:18;3.28;;;1.40;;
20095;SDS011;10207;50.942;6.900;2024-02-26T05:47:45;3.58;;;1.45;;
20095;SDS011;10207;50.942;6.900;2024-02-26T05:50:11;3.05;;;1.23;;
20095;SDS011;10207;50.942;6.900;2024-02-26T05:52:37;2.58;;;1.50;;
20095;SDS011;10207;50.942;6.900;2024-02-26T05:55:07;2.10;;;1.40;;
20095;SDS011;10207;50.942;6.900;2024-02-26T05:57:33;1.92;;;1.38;;
20095;SDS011;10207;50.942;6.900;2024-02-26T05:59:59;1.80;;;1.20;;
20095;SDS011;10207;50.942;6.900;2024-02-26T06:02:37;2.35;;;1.40;;
20095;SDS011;10207;50.942;6.900;2024-02-26T06:05:03;1.15;;;1.00;;
20095;SDS011;10207;50.942;6.900;2024-02-26T06:07:29;2.60;;;1.33;;
20095;SDS011;10207;50.942;6.900;2024-02-26T06:09:54;1.67;;;1.30;;
20095;SDS011;10207;50.942;6.900;2024-02-26T06:12:20;1.50;;;1.33;;
20095;SDS011;10207;50.942;6.900;2024-02-26T06:14:47;1.88;;;1.40;;
20095;SDS011;10207;50.942;6.900;2024-02-26T06:17:13;2.47;;;1.63;;
20095;SDS011;10207;50.942;6.900;2024-02-26T06:19:39;3.13;;;1.58;;
20095;SDS011;10207;50.942;6.900;2024-02-26T06:22:05;2.20;;;1.33;;
20095;SDS011;10207;50.942;6.900;2024-02-26T06:24:31;2.65;;;1.60;;
20095;SDS011;10207;50.942;6.900;2024-02-26T06:26:57;3.97;;;1.65;;
20095;SDS011;10207;50.942;6.900;2024-02-26T06:29:23;1.42;;;1.13;;
20095;SDS011;10207;50.942;6.900;2024-02-26T06:31:49;2.10;;;1.63;;
20095;SDS011;10207;50.942;6.900;2024-02-26T06:34:16;3.83;;;1.75;;
20095;SDS011;10207;50.942;6.900;2024-02-26T06:36:43;2.90;;;1.70;;
20095;SDS011;10207;50.942;6.900;2024-02-26T06:39:09;2.67;;;1.60;;
20095;SDS011;10207;50.942;6.900;2024-02-26T06:41:36;3.95;;;1.98;;
20095;SDS011;10207;50.942;6.900;2024-02-26T06:44:04;3.08;;;1.85;;
20095;SDS011;10207;50.942;6.900;2024-02-26T06:46:30;4.65;;;2.00;;
20095;SDS011;10207;50.942;6.900;2024-02-26T06:48:57;4.65;;;1.90;;
20095;SDS011;10207;50.942;6.900;2024-02-26T06:51:22;2.92;;;1.90;;
20095;SDS011;10207;50.942;6.900;2024-02-26T06:53:49;3.70;;;2.00;;
20095;SDS011;10207;50.942;6.900;2024-02-26T06:56:15;4.28;;;2.00;;
20095;SDS011;10207;50.942;6.900;2024-02-26T06:58:41;3.97;;;2.10;;
20095;SDS011;10207;50.942;6.900;2024-02-26T07:01:07;3.33;;;1.98;;
20095;SDS011;10207;50.942;6.900;2024-02-26T07:03:36;2.65;;;2.10;;
20095;SDS011;10207;50.942;6.900;2024-02-26T07:06:02;3.63;;;2.22;;
20095;SDS011;10207;50.942;6.900;2024-02-26T07:08:29;4.85;;;2.33;;
20095;SDS011;10207;50.942;6.900;2024-02-26T07:10:55;4.47;;;2.30;;
20095;SDS011;10207;50.942;6.900;2024-02-26T07:13:21;4.57;;;2.83;;
20095;SDS011;10207;50.942;6.900;2024-02-26T07:15:47;3.28;;;1.92;;
20095;SDS011;10207;50.942;6.900;2024-02-26T07:18:13;2.78;;;1.85;;
20095;SDS011;10207;50.942;6.900;2024-02-26T07:20:39;2.40;;;1.75;;
20095;SDS011;10207;50.942;6.900;2024-02-26T07:23:05;4.25;;;2.30;;
20095;SDS011;10207;50.942;6.900;2024-02-26T07:25:32;2.72;;;2.20;;
20095;SDS011;10207;50.942;6.900;2024-02-26T07:27:58;4.25;;;2.22;;
20095;SDS011;10207;50.942;6.900;2024-02-26T07:30:24;4.30;;;2.10;;
20095;SDS011;10207;50.942;6.900;2024-02-26T07:32:50;4.10;;;2.67;;
20095;SDS011;10207;50.942;6.900;2024-02-26T07:35:16;2.85;;;1.92;;
20095;SDS011;10207;50.942;6.900;2024-02-26T07:37:43;3.03;;;2.05;;
20095;SDS011;10207;50.942;6.900;2024-02-26T07:40:09;3.17;;;2.22;;
20095;SDS011;10207;50.942;6.900;2024-02-26T07:42:35;3.35;;;1.73;;
20095;SDS011;10207;50.942;6.900;2024-02-26T07:45:02;4.78;;;2.20;;
20095;SDS011;10207;50.942;6.900;2024-02-26T07:47:28;3.28;;;1.85;;
20095;SDS011;10207;50.942;6.900;2024-02-26T07:49:55;2.90;;;1.83;;
20095;SDS011;10207;50.942;6.900;2024-02-26T07:52:21;2.85;;;1.95;;
20095;SDS011;10207;50.942;6.900;2024-02-26T07:54:47;3.85;;;2.20;;
20095;SDS011;10207;50.942;6.900;2024-02-26T07:57:13;5.28;;;4.40;;
20095;SDS011;10207;50.942;6.900;2024-02-26T07:59:42;5.90;;;4.90;;
20095;SDS011;10207;50.942;6.900;2024-02-26T08:02:08;6.32;;;4.18;;
20095;SDS011;10207;50.942;6.900;2024-02-26T08:04:34;5.10;;;3.60;;
20095;SDS011;10207;50.942;6.900;2024-02-26T08:07:00;7.00;;;3.00;;
20095;SDS011;10207;50.942;6.900;2024-02-26T08:09:26;5.30;;;2.00;;
20095;SDS011;10207;50.942;6.900;2024-02-26T08:11:52;4.38;;;2.38;;
20095;SDS011;10207;50.942;6.900;2024-02-26T08:14:18;5.13;;;1.90;;
20095;SDS011;10207;50.942;6.900;2024-02-26T08:16:44;4.55;;;2.30;;
20095;SDS011;10207;50.942;6.900;2024-02-26T08:19:10;3.92;;;1.88;;
20095;SDS011;10207;50.942;6.900;2024-02-26T08:21:38;2.70;;;1.75;;
20095;SDS011;10207;50.942;6.900;2024-02-26T08:24:05;3.30;;;1.80;;
20095;SDS011;10207;50.942;6.900;2024-02-26T08:26:30;2.45;;;1.92;;
20095;SDS011;10207;50.942;6.900;2024-02-26T08:28:57;4.22;;;2.20;;
20095;SDS011;10207;50.942;6.900;2024-02-26T08:31:24;4.25;;;2.03;;
20095;SDS011;10207;50.942;6.900;2024-02-26T08:33:50;2.47;;;1.60;;
20095;SDS011;10207;50.942;6.900;2024-02-26T08:36:16;3.17;;;2.45;;
20095;SDS011;10207;50.942;6.900;2024-02-26T08:38:42;3.35;;;2.17;;
20095;SDS011;10207;50.942;6.900;2024-02-26T08:41:08;3.70;;;2.10;;
20095;SDS011;10207;50.942;6.900;2024-02-26T08:43:34;3.47;;;1.70;;
20095;SDS011;10207;50.942;6.900;2024-02-26T08:45:59;2.92;;;2.33;;
20095;SDS011;10207;50.942;6.900;2024-02-26T08:48:25;2.85;;;2.55;;
20095;SDS011;10207;50.942;6.900;2024-02-26T08:50:51;4.78;;;2.63;;
20095;SDS011;10207;50.942;6.900;2024-02-26T08:53:17;3.40;;;2.58;;
20095;SDS011;10207;50.942;6.900;2024-02-26T08:55:43;2.33;;;1.70;;
20095;SDS011;10207;50.942;6.900;2024-02-26T08:58:09;3.17;;;1.90;;
20095;SDS011;10207;50.942;6.900;2024-02-26T09:00:35;2.28;;;1.60;;
20095;SDS011;10207;50.942;6.900;2024-02-26T09:03:01;2.85;;;1.83;;
20095;SDS011;10207;50.942;6.900;2024-02-26T09:05:27;3.05;;;2.30;;
20095;SDS011;10207;50.942;6.900;2024-02-26T09:07:53;3.70;;;2.28;;
20095;SDS011;10207;50.942;6.900;2024-02-26T09:10:20;2.78;;;2.28;;
20095;SDS011;10207;50.942;6.900;2024-02-26T09:12:46;4.57;;;2.33;;
20095;SDS011;10207;50.942;6.900;2024-02-26T09:15:12;2.58;;;1.95;;
20095;SDS011;10207;50.942;6.900;2024-02-26T09:17:38;4.50;;;1.80;;
20095;SDS011;10207;50.942;6.900;2024-02-26T09:20:04;3.53;;;2.72;;
20095;SDS011;10207;50.942;6.900;2024-02-26T09:22:31;5.05;;;2.88;;
20095;SDS011;10207;50.942;6.900;2024-02-26T09:24:57;4.10;;;2.67;;
20095;SDS011;10207;50.942;6.900;2024-02-26T09:27:23;4.00;;;2.60;;
20095;SDS011;10207;50.942;6.900;2024-02-26T09:29:49;4.70;;;2.63;;
20095;SDS011;10207;50.942;6.900;2024-02-26T09:32:15;3.45;;;2.45;;
20095;SDS011;10207;50.942;6.900;2024-02-26T09:34:42;5.38;;;2.70;;
20095;SDS011;10207;50.942;6.900;2024-02-26T09:37:08;4.18;;;2.60;;
20095;SDS011;10207;50.942;6.900;2024-02-26T09:39:34;3.70;;;2.10;;
20095;SDS011;10207;50.942;6.900;2024-02-26T09:42:01;4.22;;;2.33;;
20095;SDS011;10207;50.942;6.900;2024-02-26T09:44:29;3.88;;;2.38;;
20095;SDS011;10207;50.942;6.900;2024-02-26T09:46:56;5.82;;;2.65;;
20095;SDS011;10207;50.942;6.900;2024-02-26T09:49:23;4.05;;;2.35;;
20095;SDS011;10207;50.942;6.900;2024-02-26T09:51:50;8.32;;;3.00;;
20095;SDS011;10207;50.942;6.900;2024-02-26T09:54:17;5.03;;;2.60;;
20095;SDS011;10207;50.942;6.900;2024-02-26T09:56:44;4.13;;;2.42;;
20095;SDS011;10207;50.942;6.900;2024-02-26T09:59:13;4.07;;;2.78;;
20095;SDS011;10207;50.942;6.900;2024-02-26T10:01:40;5.15;;;2.80;;
20095;SDS011;10207;50.942;6.900;2024-02-26T10:04:08;4.28;;;2.55;;
20095;SDS011;10207;50.942;6.900;2024-02-26T10:06:34;2.83;;;2.25;;
20095;SDS011;10207;50.942;6.900;2024-02-26T10:09:01;3.83;;;2.45;;
20095;SDS011;10207;50.942;6.900;2024-02-26T10:11:30;3.67;;;2.60;;
20095;SDS011;10207;50.942;6.900;2024-02-26T10:13:56;4.47;;;3.05;;
20095;SDS011;10207;50.942;6.900;2024-02-26T10:16:22;7.45;;;3.15;;
20095;SDS011;10207;50.942;6.900;2024-02-26T10:18:52;6.03;;;4.47;;
20095;SDS011;10207;50.942;6.900;2024-02-26T10:21:18;3.30;;;2.60;;
20095;SDS011;10207;50.942;6.900;2024-02-26T10:23:45;4.75;;;2.38;;
20095;SDS011;10207;50.942;6.900;2024-02-26T10:26:13;3.15;;;2.35;;
20095;SDS011;10207;50.942;6.900;2024-02-26T10:28:39;4.57;;;2.60;;
20095;SDS011;10207;50.942;6.900;2024-02-26T10:31:06;3.80;;;2.78;;
20095;SDS011;10207;50.942;6.900;2024-02-26T10:33:33;4.90;;;2.95;;
20095;SDS011;10207;50.942;6.900;2024-02-26T10:35:59;3.70;;;2.17;;
20095;SDS011;10207;50.942;6.900;2024-02-26T10:38:25;4.60;;;2.38;;
20095;SDS011;10207;50.942;6.900;2024-02-26T10:40:51;3.40;;;2.33;;
20095;SDS011;10207;50.942;6.900;2024-02-26T10:43:17;3.88;;;2.63;;
20095;SDS011;10207;50.942;6.900;2024-02-26T10:45:44;3.25;;;2.15;;
20095;SDS011;10207;50.942;6.900;2024-02-26T10:48:14;3.35;;;2.33;;
20095;SDS011;10207;50.942;6.900;2024-02-26T10:50:40;2.05;;;1.80;;
20095;SDS011;10207;50.942;6.900;2024-02-26T10:53:10;2.63;;;1.83;;
20095;SDS011;10207;50.942;6.900;2024-02-26T10:55:38;3.80;;;2.80;;
20095;SDS011;10207;50.942;6.900;2024-02-26T10:58:05;4.25;;;2.20;;
20095;SDS011;10207;50.942;6.900;2024-02-26T11:00:32;4.35;;;3.67;;
20095;SDS011;10207;50.942;6.900;2024-02-26T11:02:58;4.93;;;2.50;;
20095;SDS011;10207;50.942;6.900;2024-02-26T11:05:26;4.05;;;2.42;;
20095;SDS011;10207;50.942;6.900;2024-02-26T11:07:53;4.80;;;2.95;;
20095;SDS011;10207;50.942;6.900;2024-02-26T11:10:20;3.72;;;2.58;;
20095;SDS011;10207;50.942;6.900;2024-02-26T11:12:47;4.95;;;2.60;;
20095;SDS011;10207;50.942;6.900;2024-02-26T11:15:14;2.88;;;2.30;;
20095;SDS011;10207;50.942;6.900;2024-02-26T11:17:40;4.47;;;3.20;;
20095;SDS011;10207;50.942;6.900;2024-02-26T11:20:09;3.97;;;2.63;;
20095;SDS011;10207;50.942;6.900;2024-02-26T11:22:36;5.60;;;2.92;;
20095;SDS011;10207;50.942;6.900;2024-02-26T11:25:03;4.40;;;2.97;;
20095;SDS011;10207;50.942;6.900;2024-02-26T11:27:33;3.35;;;2.33;;
20095;SDS011;10207;50.942;6.900;2024-02-26T11:30:01;3.42;;;2.28;;
20095;SDS011;10207;50.942;6.900;2024-02-26T11:32:28;5.70;;;2.55;;
20095;SDS011;10207;50.942;6.900;2024-02-26T11:34:56;2.90;;;2.00;;
20095;SDS011;10207;50.942;6.900;2024-02-26T11:37:22;4.35;;;2.60;;
20095;SDS011;10207;50.942;6.900;2024-02-26T11:39:48;4.25;;;2.63;;
20095;SDS011;10207;50.942;6.900;2024-02-26T11:42:17;4.05;;;2.15;;
20095;SDS011;10207;50.942;6.900;2024-02-26T11:44:43;4.45;;;2.35;;
20095;SDS011;10207;50.942;6.900;2024-02-26T11:49:35;3.72;;;2.35;;
20095;SDS011;10207;50.942;6.900;2024-02-26T11:52:04;3.70;;;1.98;;
20095;SDS011;10207;50.942;6.900;2024-02-26T11:54:43;3.58;;;2.20;;
20095;SDS011;10207;50.942;6.900;2024-02-26T12:02:51;4.47;;;2.17;;
20095;SDS011;10207;50.942;6.900;2024-02-26T12:05:24;4.40;;;2.17;;
20095;SDS011;10207;50.942;6.900;2024-02-26T12:07:53;2.90;;;1.88;;
20095;SDS011;10207;50.942;6.900;2024-02-26T12:10:24;4.57;;;2.65;;
20095;SDS011;10207;50.942;6.900;2024-02-26T12:12:54;5.75;;;2.78;;
20095;SDS011;10207;50.942;6.900;2024-02-26T12:15:22;3.95;;;2.47;;
20095;SDS011;10207;50.942;6.900;2024-02-26T12:17:49;5.18;;;2.63;;
20095;SDS011;10207;50.942;6.900;2024-02-26T12:20:16;4.32;;;2.83;;
20095;SDS011;10207;50.942;6.900;2024-02-26T12:22:46;4.80;;;2.75;;
20095;SDS011;10207;50.942;6.900;2024-02-26T12:25:15;4.60;;;2.30;;
20095;SDS011;10207;50.942;6.900;2024-02-26T12:27:41;3.63;;;2.65;;
20095;SDS011;10207;50.942;6.900;2024-02-26T12:30:08;5.50;;;2.88;;
20095;SDS011;10207;50.942;6.900;2024-02-26T12:32:34;4.03;;;2.83;;
20095;SDS011;10207;50.942;6.900;2024-02-26T12:35:00;3.90;;;2.80;;
20095;SDS011;10207;50.942;6.900;2024-02-26T12:37:27;6.10;;;3.30;;
20095;SDS011;10207;50.942;6.900;2024-02-26T12:39:54;4.32;;;2.78;;
20095;SDS011;10207;50.942;6.900;2024-02-26T12:42:20;4.18;;;2.70;;
20095;SDS011;10207;50.942;6.900;2024-02-26T12:44:46;6.85;;;3.55;;
20095;SDS011;10207;50.942;6.900;2024-02-26T12:47:12;7.20;;;3.10;;
20095;SDS011;10207;50.942;6.900;2024-02-26T12:49:42;5.43;;;3.90;;
20095;SDS011;10207;50.942;6.900;2024-02-26T12:52:10;4.38;;;3.20;;
20095;SDS011;10207;50.942;6.900;2024-02-26T12:54:36;8.00;;;3.80;;
20095;SDS011;10207;50.942;6.900;2024-02-26T12:57:04;4.20;;;3.22;;
20095;SDS011;10207;50.942;6.900;2024-02-26T12:59:32;6.32;;;3.15;;
20095;SDS011;10207;50.942;6.900;2024-02-26T13:02:00;6.10;;;3.35;;
20095;SDS011;10207;50.942;6.900;2024-02-26T13:04:28;6.47;;;3.30;;
20095;SDS011;10207;50.942;6.900;2024-02-26T13:06:54;5.60;;;3.03;;
20095;SDS011;10207;50.942;6.900;2024-02-26T13:09:21;5.20;;;3.55;;
20095;SDS011;10207;50.942;6.900;2024-02-26T13:11:55;5.00;;;3.20;;
20095;SDS011;10207;50.942;6.900;2024-02-26T13:14:21;3.75;;;2.90;;
20095;SDS011;10207;50.942;6.900;2024-02-26T13:16:57;7.22;;;3.67;;
20095;SDS011;10207;50.942;6.900;2024-02-26T13:19:23;4.72;;;2.90;;
20095;SDS011;10207;50.942;6.900;2024-02-26T13:21:49;4.00;;;2.88;;
20095;SDS011;10207;50.942;6.900;2024-02-26T13:24:15;4.50;;;3.05;;
20095;SDS011;10207;50.942;6.900;2024-02-26T13:26:42;5.95;;;3.45;;
20095;SDS011;10207;50.942;6.900;2024-02-26T13:29:08;4.60;;;3.22;;
20095;SDS011;10207;50.942;6.900;2024-02-26T13:31:40;5.25;;;3.38;;
20095;SDS011;10207;50.942;6.900;2024-02-26T13:34:06;4.97;;;3.20;;
20095;SDS011;10207;50.942;6.900;2024-02-26T13:36:32;6.20;;;3.22;;
20095;SDS011;10207;50.942;6.900;2024-02-26T13:38:59;5.05;;;3.42;;
20095;SDS011;10207;50.942;6.900;2024-02-26T13:41:25;5.32;;;3.63;;
20095;SDS011;10207;50.942;6.900;2024-02-26T13:43:51;8.40;;;4.18;;
20095;SDS011;10207;50.942;6.900;2024-02-26T13:46:18;9.70;;;4.35;;
20095;SDS011;10207;50.942;6.900;2024-02-26T13:48:44;6.72;;;3.75;;
20095;SDS011;10207;50.942;6.900;2024-02-26T13:51:10;6.32;;;3.33;;
20095;SDS011;10207;50.942;6.900;2024-02-26T13:53:36;7.38;;;3.72;;
20095;SDS011;10207;50.942;6.900;2024-02-26T13:56:02;8.27;;;5.53;;
20095;SDS011;10207;50.942;6.900;2024-02-26T13:58:29;6.90;;;4.55;;
20095;SDS011;10207;50.942;6.900;2024-02-26T14:00:56;7.38;;;4.85;;
20095;SDS011;10207;50.942;6.900;2024-02-26T14:03:22;7.20;;;4.75;;
20095;SDS011;10207;50.942;6.900;2024-02-26T14:05:48;5.53;;;3.97;;
20095;SDS011;10207;50.942;6.900;2024-02-26T14:08:14;10.90;;;6.03;;
20095;SDS011;10207;50.942;6.900;2024-02-26T14:10:40;7.28;;;4.97;;
20095;SDS011;10207;50.942;6.900;2024-02-26T14:13:07;4.70;;;3.20;;
20095;SDS011;10207;50.942;6.900;2024-02-26T14:15:33;6.20;;;3.95;;
20095;SDS011;10207;50.942;6.900;2024-02-26T14:18:01;6.00;;;3.45;;
20095;SDS011;10207;50.942;6.900;2024-02-26T14:20:29;7.85;;;4.55;;
20095;SDS011;10207;50.942;6.900;2024-02-26T14:22:55;8.32;;;5.03;;
20095;SDS011;10207;50.942;6.900;2024-02-26T14:25:21;10.15;;;6.93;;
20095;SDS011;10207;50.942;6.900;2024-02-26T14:27:47;9.02;;;5.82;;
20095;SDS011;10207;50.942;6.900;2024-02-26T14:30:14;7.68;;;5.13;;
20095;SDS011;10207;50.942;6.900;2024-02-26T14:32:40;10.02;;;5.18;;
20095;SDS011;10207;50.942;6.900;2024-02-26T14:35:06;10.15;;;5.88;;
20095;SDS011;10207;50.942;6.900;2024-02-26T14:37:33;8.00;;;5.05;;
20095;SDS011;10207;50.942;6.900;2024-02-26T14:39:59;7.00;;;5.32;;
20095;SDS011;10207;50.942;6.900;2024-02-26T14:42:24;8.32;;;5.72;;
20095;SDS011;10207;50.942;6.900;2024-02-26T14:44:50;11.10;;;6.47;;
20095;SDS011;10207;50.942;6.900;2024-02-26T14:47:16;6.18;;;4.35;;
20095;SDS011;10207;50.942;6.900;2024-02-26T14:49:42;9.27;;;5.53;;
20095;SDS011;10207;50.942;6.900;2024-02-26T14:52:09;8.65;;;4.97;;